Time;durP1;ratioP1;P1;durP2;ratioP2;P2;SDS_P1;SDS_P2;PMS_P1;PMS_P2;Temp;Humidity;BMP_temperature;BMP_pressure;BME280_temperature;BME280_humidity;BME280_pressure;Samples;Min_cycle;Max_cycle;Signal;HPM_P1;HPM_P2
2021/11/17 02:27:32;;;;;;;17.40;9.50;;;;;;;8.63;96.67;97686.13;4926687;29;20070;-72
2021/11/17 02:30:14;;;;;;;20.13;9.48;;;;;;;8.69;95.55;97683.97;4925692;29;20118;-73
2021/11/17 02:33:09;;;;;;;10.60;5.80;;;;;;;8.74;95.06;97681.00;4926744;29;20511;-71
2021/11/17 02:35:51;;;;;;;10.90;5.18;;;;;;;8.76;94.78;97681.44;4925146;29;20821;-73
2021/11/17 02:38:51;;;;;;;11.50;4.97;;;;;;;8.76;94.81;97681.44;4941413;29;20056;-72
2021/11/17 02:41:27;;;;;;;10.70;5.28;;;;;;;8.69;94.95;97678.47;4940677;29;20538;-72
2021/11/17 02:44:03;;;;;;;12.07;5.05;;;;;;;8.72;94.57;97675.81;4926660;29;20059;-72
2021/11/17 02:46:39;;;;;;;11.45;5.20;;;;;;;8.68;94.93;97674.06;4926605;29;20056;-72
2021/11/17 02:49:26;;;;;;;14.20;5.65;;;;;;;8.55;95.47;97678.75;4926999;29;20060;-72
2021/11/17 02:52:08;;;;;;;10.18;5.32;;;;;;;8.62;95.39;97683.72;4926912;28;20100;-70
2021/11/17 02:54:44;;;;;;;8.90;5.22;;;;;;;8.55;96.10;97673.22;4926439;29;20617;-73
2021/11/17 02:57:25;;;;;;;10.13;5.28;;;;;;;8.55;95.81;97672.44;4941641;29;20515;-71
2021/11/17 02:59:58;;;;;;;12.00;5.55;;;;;;;8.59;96.16;97676.13;4926807;29;20064;-73
2021/11/17 03:02:47;;;;;;;12.93;5.80;;;;;;;8.55;96.69;97681.53;4941159;29;20056;-72
2021/11/17 03:05:33;;;;;;;12.30;6.55;;;;;;;8.10;97.05;97672.38;4937768;29;20442;-72
2021/11/17 03:08:09;;;;;;;12.15;6.80;;;;;;;8.51;97.30;97682.56;4929046;29;20051;-73
2021/11/17 03:11:01;;;;;;;13.23;6.18;;;;;;;8.51;97.20;97682.56;4928554;29;20055;-72
2021/11/17 03:13:34;;;;;;;12.80;6.68;;;;;;;8.52;97.70;97678.66;4944548;29;20059;-72
2021/11/17 03:16:06;;;;;;;15.88;7.30;;;;;;;8.42;97.41;97670.81;4944069;29;20519;-73
2021/11/17 03:19:08;;;;;;;14.67;7.43;;;;;;;8.49;97.14;97674.59;4945976;29;20058;-71
2021/11/17 03:21:53;;;;;;;16.13;8.43;;;;;;;8.36;97.73;97674.94;4941766;29;20142;-72
2021/11/17 03:24:49;;;;;;;16.70;8.57;;;;;;;7.87;97.60;97584.84;4945664;29;20074;-71
2021/11/17 03:27:46;;;;;;;11.52;6.72;;;;;;;8.48;98.00;97677.72;4930519;28;20681;-72
2021/11/17 03:30:25;;;;;;;23.13;10.68;;;;;;;8.50;97.58;97670.72;4945809;28;20066;-73
2021/11/17 03:33:17;;;;;;;47.40;15.77;;;;;;;8.49;97.08;97671.03;4945787;28;20491;-73
2021/11/17 03:35:49;;;;;;;35.88;13.20;;;;;;;8.53;96.93;97669.22;4930369;29;20506;-73
2021/11/17 03:38:57;;;;;;;37.57;12.30;;;;;;;8.35;96.29;97654.78;4943603;29;20062;-72
2021/11/17 03:41:45;;;;;;;53.03;16.45;;;;;;;8.62;95.85;97667.16;4943438;29;20059;-72
2021/11/17 03:45:04;;;;;;;30.08;12.10;;;;;;;8.65;96.09;97659.00;4943833;29;20059;-72
2021/11/17 03:47:56;;;;;;;19.48;9.45;;;;;;;8.23;99.67;97673.28;4933495;29;20051;-72
2021/11/17 03:50:48;;;;;;;15.77;8.05;;;;;;;8.32;98.25;97666.50;4942906;29;20174;-73
2021/11/17 03:53:24;;;;;;;17.35;8.35;;;;;;;8.12;100.00;97670.09;4945658;28;20051;-72
2021/11/17 03:56:04;;;;;;;15.48;6.97;;;;;;;8.29;99.30;97669.16;4927738;29;20509;-73
2021/11/17 03:58:43;;;;;;;19.38;8.65;;;;;;;8.35;99.06;97667.78;4946006;28;20051;-70
2021/11/17 04:01:26;;;;;;;15.55;7.70;;;;;;;7.77;98.59;97563.19;4947444;29;20430;-73
2021/11/17 04:04:02;;;;;;;12.13;6.68;;;;;;;8.26;98.51;97669.81;4947217;29;20110;-72
2021/11/17 04:06:38;;;;;;;13.35;5.65;;;;;;;8.18;98.29;97662.41;4946915;29;20069;-70
2021/11/17 04:09:15;;;;;;;9.35;5.00;;;;;;;8.01;97.00;97663.38;4948825;28;20458;-72
2021/11/17 04:12:19;;;;;;;10.25;4.68;;;;;;;8.16;95.00;97659.16;4947280;29;20059;-73
2021/11/17 04:15:04;;;;;;;;;;;;;;;8.15;96.31;97669.41;4949037;28;20102;-73
2021/11/17 04:18:02;;;;;;;7.93;4.68;;;;;;;8.17;96.12;97666.31;4947138;29;19949;-72
2021/11/17 04:20:44;;;;;;;12.50;4.72;;;;;;;8.10;93.17;97666.06;4946244;29;20055;-71
2021/11/17 04:23:29;;;;;;;8.45;3.92;;;;;;;8.19;93.08;97666.78;4948095;29;20455;-71
2021/11/17 04:26:08;;;;;;;10.80;4.82;;;;;;;8.25;92.76;97673.75;4947463;29;20059;-70
2021/11/17 04:29:06;;;;;;;14.07;5.05;;;;;;;8.28;93.15;97673.06;4947698;29;20055;-72
2021/11/17 04:31:57;;;;;;;8.32;4.30;;;;;;;8.41;92.45;97666.44;4946354;29;20069;-73
2021/11/17 04:34:48;;;;;;;12.63;4.75;;;;;;;8.42;91.63;97670.81;4947260;28;20530;-71
2021/11/17 04:37:31;;;;;;;14.10;5.65;;;;;;;8.45;91.58;97678.41;4947684;29;20553;-73
2021/11/17 04:40:13;;;;;;;9.23;4.25;;;;;;;8.41;91.76;97667.22;4946618;29;20235;-73
2021/11/17 04:43:04;;;;;;;10.40;4.38;;;;;;;8.51;90.29;97677.03;4947614;29;20110;-72
2021/11/17 04:45:39;;;;;;;8.52;4.07;;;;;;;8.53;90.95;97680.25;4947607;29;20416;-71
2021/11/17 04:48:41;;;;;;;10.57;4.70;;;;;;;8.58;90.21;97677.28;4946254;29;20503;-70
2021/11/17 04:51:36;;;;;;;9.05;3.95;;;;;;;8.28;89.59;97637.19;4939730;29;20039;-71
2021/11/17 04:54:03;;;;;;;10.98;4.93;;;;;;;8.46;90.56;97685.53;4946623;29;20134;-70
2021/11/17 04:56:33;;;;;;;11.27;5.45;;;;;;;8.46;90.99;97697.38;4947296;28;20065;-70
2021/11/17 04:59:08;;;;;;;17.77;7.88;;;;;;;8.49;90.93;97690.34;4947808;29;20134;-71
2021/11/17 05:01:57;;;;;;;11.15;5.07;;;;;;;8.48;89.21;97689.56;4923967;28;20051;-70
2021/11/17 05:04:53;;;;;;;9.38;3.95;;;;;;;8.11;90.73;97695.28;4947453;28;20066;-71
2021/11/17 05:07:38;;;;;;;8.23;3.97;;;;;;;7.60;94.70;97690.97;4937133;29;20052;-71
2021/11/17 05:10:17;;;;;;;11.65;3.58;;;;;;;7.43;95.83;97697.41;4944996;28;20069;-70
2021/11/17 05:12:57;;;;;;;14.20;4.00;;;;;;;7.28;96.26;97666.88;4945917;29;20113;-71
2021/11/17 05:15:48;;;;;;;10.23;3.95;;;;;;;7.45;96.25;97673.06;4945774;29;20065;-68
2021/11/17 05:18:24;;;;;;;6.63;3.38;;;;;;;7.80;93.20;97705.91;4946930;28;20643;-69
2021/11/17 05:20:59;;;;;;;7.60;3.47;;;;;;;7.92;91.27;97708.75;4946754;29;20059;-70
2021/11/17 05:23:51;;;;;;;5.13;3.40;;;;;;;7.66;91.91;97693.22;4946834;29;20065;-68
2021/11/17 05:26:48;;;;;;;7.63;3.90;;;;;;;7.46;91.79;97696.72;4946166;29;20458;-69
2021/11/17 05:29:33;;;;;;;6.32;3.38;;;;;;;6.21;92.26;97505.22;4945604;29;20057;-70
2021/11/17 05:32:23;;;;;;;8.93;3.58;;;;;;;7.50;93.73;97705.97;4945262;29;20526;-70
2021/11/17 05:35:20;;;;;;;9.27;3.47;;;;;;;7.32;94.47;97701.69;4943322;29;20525;-70
2021/11/17 05:38:08;;;;;;;6.82;4.25;;;;;;;7.66;93.26;97712.50;4946676;28;20058;-69
2021/11/17 05:41:05;;;;;;;16.50;5.40;;;;;;;7.55;93.28;97683.72;4946532;28;20055;-72
2021/11/17 05:43:48;;;;;;;22.27;9.30;;;;;;;7.91;93.90;97718.97;4938062;29;20130;-70
2021/11/17 05:46:33;;;;;;;16.65;7.78;;;;;;;8.01;94.46;97720.50;4946789;29;20051;-71
2021/11/17 05:49:02;;;;;;;21.88;9.93;;;;;;;8.03;94.84;97715.47;4946518;29;20071;-69
2021/11/17 05:52:06;;;;;;;16.27;8.45;;;;;;;8.09;94.30;97720.44;4946199;29;20059;-70
2021/11/17 05:54:39;;;;;;;;;;;;;;;7.80;94.60;97723.25;4945840;29;20062;-70
2021/11/17 05:57:05;;;;;;;9.55;5.03;;;;;;;7.46;96.34;97726.25;4945920;29;19970;-70
2021/11/17 05:59:55;;;;;;;11.07;5.30;;;;;;;7.40;97.08;97720.13;4946415;29;20055;-69
2021/11/17 06:02:25;;;;;;;11.13;5.43;;;;;;;7.29;97.64;97721.66;4945318;28;20067;-68
2021/11/17 06:04:53;;;;;;;8.63;4.70;;;;;;;7.26;96.71;97719.56;4946122;29;20054;-70
2021/11/17 06:07:19;;;;;;;9.45;4.68;;;;;;;7.26;95.72;97729.75;4946191;29;20059;-69
2021/11/17 06:09:46;;;;;;;10.73;4.38;;;;;;;7.33;95.84;97736.38;4944646;29;20506;-70
2021/11/17 06:12:15;;;;;;;12.20;5.68;;;;;;;7.63;94.95;97739.94;4943557;29;20546;-70
2021/11/17 06:14:48;;;;;;;6.85;4.03;;;;;;;7.54;95.21;97739.16;4944734;29;20059;-68
2021/11/17 06:17:19;;;;;;;10.18;5.20;;;;;;;6.99;96.19;97686.97;4945547;29;20550;-70
2021/11/17 06:19:49;;;;;;;11.32;5.63;;;;;;;6.56;96.55;97589.19;4945629;28;20082;-70
2021/11/17 06:22:19;;;;;;;12.20;5.63;;;;;;;7.26;97.56;97818.75;4944623;29;20167;-70
2021/11/17 06:24:49;;;;;;;17.67;6.78;;;;;;;7.48;97.16;97732.22;4946537;29;20051;-71
2021/11/17 06:27:20;;;;;;;17.92;6.80;;;;;;;7.32;96.15;97696.19;4944579;29;20062;-71
2021/11/17 06:29:53;;;;;;;10.63;5.10;;;;;;;7.42;95.37;97728.88;4946409;29;20114;-68
2021/11/17 06:32:20;;;;;;;12.63;5.85;;;;;;;7.51;94.63;97726.88;4945526;29;20051;-72
2021/11/17 06:34:50;;;;;;;9.77;5.20;;;;;;;7.45;94.18;97722.69;4946175;28;20051;-70
2021/11/17 06:37:22;;;;;;;11.23;4.53;;;;;;;7.30;93.67;97728.75;4960265;28;20116;-71
2021/11/17 06:39:51;;;;;;;9.45;4.85;;;;;;;7.28;93.48;97697.19;4945622;28;20584;-70
2021/11/17 06:42:31;;;;;;;9.95;4.63;;;;;;;7.08;92.36;97701.50;4945510;29;20061;-70
2021/11/17 06:44:59;;;;;;;8.73;4.32;;;;;;;7.46;92.72;97732.56;4945933;29;20055;-71
2021/11/17 06:47:26;;;;;;;10.27;4.30;;;;;;;7.77;92.03;97717.59;4945452;29;20057;-71
2021/11/17 06:49:53;;;;;;;10.63;5.13;;;;;;;8.16;91.28;97725.41;4946083;29;20055;-70
2021/11/17 06:52:21;;;;;;;11.85;4.75;;;;;;;5.94;88.12;97389.03;4959694;28;20055;-69
2021/11/17 06:54:49;;;;;;;12.55;3.58;;;;;;;8.02;87.10;97720.16;4930587;29;20586;-61
2021/11/17 06:57:18;;;;;;;10.00;4.47;;;;;;;8.00;86.57;97692.09;4924550;28;20075;-66
2021/11/17 06:59:46;;;;;;;11.30;4.65;;;;;;;8.28;86.32;97728.25;4929616;28;20055;-70
2021/11/17 07:02:13;;;;;;;8.25;3.85;;;;;;;7.98;86.79;97726.69;4932376;29;20434;-62
2021/11/17 07:04:40;;;;;;;8.02;4.40;;;;;;;7.80;86.77;97692.13;4936797;29;20086;-62
2021/11/17 07:07:09;;;;;;;5.15;3.03;;;;;;;7.40;83.69;97626.41;4943326;29;20079;-63
2021/11/17 07:09:36;;;;;;;9.43;3.72;;;;;;;7.52;85.69;97659.56;4927060;28;20067;-61
2021/11/17 07:12:04;;;;;;;9.60;4.05;;;;;;;7.36;85.38;97642.03;4931900;29;20820;-62
2021/11/17 07:14:31;;;;;;;8.38;3.95;;;;;;;6.97;85.68;97524.00;4931036;29;20106;-65
2021/11/17 07:16:58;;;;;;;10.25;4.03;;;;;;;7.66;85.93;97673.91;4938608;29;20447;-70
2021/11/17 07:19:25;;;;;;;9.95;4.07;;;;;;;7.86;85.85;97679.72;4944934;29;20044;-67
2021/11/17 07:21:57;;;;;;;11.48;6.00;;;;;;;8.11;85.17;97684.25;4944915;28;20058;-63
2021/11/17 07:24:26;;;;;;;15.55;5.95;;;;;;;8.42;82.90;97651.47;4944541;29;20697;-62
2021/11/17 07:26:54;;;;;;;10.88;3.97;;;;;;;9.08;80.95;97713.72;4944924;29;20055;-61
2021/11/17 07:29:21;;;;;;;6.57;3.22;;;;;;;9.33;78.91;97720.88;4929567;29;20062;-63
2021/11/17 07:31:49;;;;;;;5.95;2.45;;;;;;;9.51;76.06;97711.22;4925113;29;20047;-62
2021/11/17 07:34:17;;;;;;;5.65;3.10;;;;;;;9.07;76.95;97714.88;4927209;29;20191;-62
2021/11/17 07:36:45;;;;;;;3.80;2.13;;;;;;;8.50;78.33;97686.47;4934021;29;20067;-64
2021/11/17 07:39:14;;;;;;;5.78;3.28;;;;;;;8.71;77.20;97648.56;4943325;28;20513;-63
2021/11/17 07:41:43;;;;;;;6.53;4.20;;;;;;;9.50;71.98;97719.84;4933680;29;20067;-67
2021/11/17 07:44:12;;;;;;;10.73;4.68;;;;;;;9.03;70.84;97629.09;4936415;29;20613;-67
2021/11/17 07:46:39;;;;;;;7.10;3.72;;;;;;;9.41;69.82;97647.25;4937361;29;20434;-70
2021/11/17 07:49:06;;;;;;;8.23;3.40;;;;;;;8.67;68.29;97537.16;4941497;29;20043;-69
2021/11/17 07:51:32;;;;;;;8.15;4.60;;;;;;;9.53;66.96;97653.56;4931629;29;20134;-70
2021/11/17 07:53:59;;;;;;;10.05;4.68;;;;;;;9.71;65.62;97643.84;4941422;29;20458;-68
2021/11/17 07:56:26;;;;;;;11.73;4.45;;;;;;;9.74;64.98;97632.09;4937560;29;20062;-69
2021/11/17 07:58:53;;;;;;;21.17;9.82;;;;;;;9.65;65.39;97606.53;4941536;29;20062;-68
2021/11/17 08:01:20;;;;;;;16.05;7.97;;;;;;;9.39;63.81;97522.41;4943424;28;20060;-64
2021/11/17 08:03:48;;;;;;;8.27;4.60;;;;;;;8.44;62.56;97417.31;4938429;28;20051;-68
2021/11/17 08:06:17;;;;;;;8.07;4.43;;;;;;;9.97;62.79;97655.31;4971500;28;20396;-65
2021/11/17 08:08:44;;;;;;;8.18;4.80;;;;;;;10.30;62.60;97705.75;4960025;28;20506;-67
2021/11/17 08:11:14;;;;;;;10.05;4.45;;;;;;;9.49;62.59;97599.31;4967220;28;20403;-65
2021/11/17 08:13:40;;;;;;;11.25;5.25;;;;;;;10.54;62.54;97711.16;4967166;28;20063;-63
2021/11/17 08:16:08;;;;;;;8.70;4.22;;;;;;;10.36;60.90;97684.13;4953035;28;20131;-69
2021/11/17 08:18:38;;;;;;;8.75;5.07;;;;;;;10.48;61.63;97718.09;4931628;29;20058;-67
2021/11/17 08:21:06;;;;;;;6.97;3.25;;;;;;;10.62;60.68;97710.19;4938208;29;20047;-64
2021/11/17 08:23:33;;;;;;;11.93;5.43;;;;;;;9.95;61.05;97632.72;4933049;29;21575;-65
2021/11/17 08:26:00;;;;;;;7.32;3.63;;;;;;;10.21;60.62;97654.44;4933385;29;20054;-64
2021/11/17 08:28:27;;;;;;;9.18;5.55;;;;;;;10.75;60.61;97721.22;4947258;29;20047;-69
2021/11/17 08:30:54;;;;;;;8.75;3.55;;;;;;;10.06;60.02;97617.22;4936053;29;20315;-68
2021/11/17 08:33:21;;;;;;;6.63;4.07;;;;;;;10.68;60.99;97711.53;4934253;29;20570;-70
2021/11/17 08:35:48;;;;;;;4.85;3.08;;;;;;;10.73;60.18;97719.59;4931258;29;20047;-64
2021/11/17 08:38:24;;;;;;;8.70;3.88;;;;;;;10.87;59.39;97726.69;4936793;29;20055;-66
2021/11/17 08:40:58;;;;;;;8.32;3.78;;;;;;;10.77;59.45;97718.88;4928619;29;20462;-63
2021/11/17 08:43:27;;;;;;;9.57;4.93;;;;;;;10.53;59.19;97687.38;4927874;29;20091;-62
2021/11/17 08:45:54;;;;;;;10.40;5.18;;;;;;;10.79;59.64;97717.38;4928260;29;20070;-63
2021/11/17 08:48:24;;;;;;;10.35;4.20;;;;;;;9.76;59.24;97546.78;4934856;29;20569;-65
2021/11/17 08:50:55;;;;;;;13.02;6.43;;;;;;;10.77;59.57;97718.88;4947222;28;20055;-64
2021/11/17 08:53:24;;;;;;;8.50;4.90;;;;;;;11.02;59.23;97714.81;4947283;28;20055;-67
2021/11/17 08:55:53;;;;;;;10.43;4.53;;;;;;;10.91;59.12;97708.19;4938923;28;20431;-62
2021/11/17 08:58:21;;;;;;;10.15;5.70;;;;;;;11.09;58.80;97698.34;4938587;29;20059;-68
2021/11/17 09:00:49;;;;;;;13.77;4.68;;;;;;;11.37;58.09;97699.06;4927900;29;20063;-71
2021/11/17 09:03:16;;;;;;;6.45;3.75;;;;;;;11.21;56.91;97659.44;4950009;28;20129;-66
2021/11/17 09:05:46;;;;;;;6.15;3.38;;;;;;;10.36;57.46;97548.44;4936469;28;20055;-71
2021/11/17 09:08:14;;;;;;;6.65;3.65;;;;;;;11.30;57.59;97701.66;4937006;29;20515;-62
2021/11/17 09:10:44;;;;;;;9.68;4.47;;;;;;;11.10;58.29;97666.69;4935436;29;20130;-62
2021/11/17 09:13:11;;;;;;;5.13;3.13;;;;;;;11.31;57.53;97697.72;4935339;29;20521;-64
2021/11/17 09:15:41;;;;;;;3.05;2.25;;;;;;;11.15;56.37;97691.38;4930352;28;20066;-64
2021/11/17 09:18:16;;;;;;;5.43;2.97;;;;;;;11.00;57.19;97690.19;4936420;29;20180;-65
2021/11/17 09:20:44;;;;;;;6.13;3.30;;;;;;;10.99;57.79;97679.47;4944893;29;20102;-63
2021/11/17 09:23:11;;;;;;;7.70;3.35;;;;;;;11.11;57.89;97696.81;4939736;29;20059;-64
2021/11/17 09:25:39;;;;;;;5.43;2.75;;;;;;;10.62;56.35;97618.75;4946263;28;20055;-66
2021/11/17 09:28:07;;;;;;;3.85;2.67;;;;;;;10.99;57.15;97643.44;4936929;28;20044;-63
2021/11/17 09:30:38;;;;;;;3.00;2.28;;;;;;;11.31;56.06;97662.47;4928247;29;20539;-65
2021/11/17 09:33:08;;;;;;;5.15;3.05;;;;;;;11.53;56.07;97655.44;4932338;28;20059;-65
2021/11/17 09:35:35;;;;;;;9.25;4.55;;;;;;;11.58;55.20;97635.75;4941067;29;20074;-63
2021/11/17 09:38:05;;;;;;;4.68;2.55;;;;;;;11.83;53.72;97667.66;4941657;28;20062;-66
2021/11/17 09:41:08;;;;;;;2.90;1.90;;;;;;;7.18;56.17;97106.09;4950633;28;20055;-68
2021/11/17 09:43:39;;;;;;;6.50;2.22;;;;;;;10.54;57.81;97655.75;4926645;29;20056;-65
2021/11/17 09:46:07;;;;;;;3.67;2.80;;;;;;;11.01;57.22;97674.38;4926783;29;20056;-65
2021/11/17 09:48:38;;;;;;;5.28;2.65;;;;;;;11.14;57.11;97678.69;4926509;28;20087;-66
2021/11/17 09:51:10;;;;;;;5.35;2.90;;;;;;;10.39;55.91;97482.06;4929334;29;20053;-66
2021/11/17 09:53:58;;;;;;;3.55;2.85;;;;;;;11.91;55.96;97674.97;4934690;29;20059;-63
2021/11/17 09:56:41;;;;;;;3.38;2.10;;;;;;;12.08;54.61;97674.56;4935976;29;20511;-65
2021/11/17 09:59:33;;;;;;;5.05;2.40;;;;;;;12.20;53.85;97671.66;4928648;29;20071;-63
2021/11/17 10:02:09;;;;;;;7.97;4.32;;;;;;;12.17;54.27;97672.38;4942231;29;20051;-64
2021/11/17 10:04:47;;;;;;;14.00;5.80;;;;;;;12.21;53.84;97664.91;4940373;29;20055;-62
2021/11/17 10:13:06;;;;;;;4.95;3.00;;;;;;;10.03;52.97;97296.06;4927305;28;20087;-70
2021/11/17 10:15:38;;;;;;;6.55;3.13;;;;;;;12.24;53.06;97658.63;4924521;29;20230;-65
2021/11/17 10:18:16;;;;;;;4.35;2.67;;;;;;;12.21;53.58;97653.81;4928154;29;20618;-71
2021/11/17 10:20:50;;;;;;;4.65;2.53;;;;;;;12.23;53.56;97648.69;4926917;28;20051;-71
2021/11/17 10:23:18;;;;;;;2.67;2.40;;;;;;;12.03;53.67;97644.28;4925183;29;20052;-71
2021/11/17 10:26:13;;;;;;;4.15;2.78;;;;;;;11.60;53.76;97603.69;4925898;29;20123;-66
2021/11/17 10:28:39;;;;;;;5.90;3.13;;;;;;;11.86;54.29;97647.50;4924737;29;20047;-64
2021/11/17 10:31:18;;;;;;;5.40;3.05;;;;;;;11.72;54.21;97614.69;4926417;28;20081;-65
2021/11/17 10:33:55;;;;;;;6.50;3.03;;;;;;;11.90;54.35;97640.06;4926268;29;20479;-66
2021/11/17 10:36:40;;;;;;;5.88;2.92;;;;;;;11.63;56.34;97641.06;4925664;29;20066;-66
2021/11/17 10:39:37;;;;;;;9.60;5.40;;;;;;;11.44;60.98;97632.66;4926231;28;20060;-66
2021/11/17 10:42:24;;;;;;;10.85;5.30;;;;;;;11.26;64.05;97631.44;4926024;28;20063;-72
2021/11/17 10:45:13;;;;;;;14.52;6.40;;;;;;;10.91;65.29;97619.50;4933871;29;20075;-72
2021/11/17 10:47:48;;;;;;;10.25;5.55;;;;;;;10.68;66.90;97628.41;4944511;28;20397;-71
2021/11/17 10:50:37;;;;;;;11.82;5.38;;;;;;;10.34;68.31;97629.09;4940682;29;20059;-72
2021/11/17 10:53:06;;;;;;;10.45;5.22;;;;;;;10.40;68.93;97626.88;4937996;29;20058;-63
2021/11/17 10:55:46;;;;;;;12.30;5.57;;;;;;;9.18;68.79;97431.38;4936358;29;20051;-65
2021/11/17 10:58:25;;;;;;;14.90;5.97;;;;;;;9.07;68.54;97399.88;4936766;29;20047;-70
2021/11/17 11:01:01;;;;;;;10.45;5.32;;;;;;;10.38;68.51;97613.41;4938685;29;20523;-62
2021/11/17 11:03:34;;;;;;;13.73;6.60;;;;;;;10.40;68.94;97621.34;4942257;29;20162;-65
2021/11/17 11:06:06;;;;;;;10.00;5.53;;;;;;;9.97;69.49;97599.97;4938767;29;20055;-64
2021/11/17 11:08:43;;;;;;;14.40;5.95;;;;;;;9.48;69.09;97496.22;4930998;29;20138;-66
2021/11/17 11:11:10;;;;;;;17.13;7.57;;;;;;;10.25;69.18;97636.75;4943845;29;20519;-67
2021/11/17 11:14:02;;;;;;;11.35;5.20;;;;;;;10.26;67.83;97616.22;4946269;29;20142;-68
2021/11/17 11:16:38;;;;;;;13.55;6.93;;;;;;;9.90;68.59;97577.63;4945100;29;20066;-68
2021/11/17 11:19:12;;;;;;;14.23;6.63;;;;;;;10.29;67.99;97621.03;4951406;28;20058;-63
2021/11/17 11:22:00;;;;;;;9.23;5.28;;;;;;;10.32;67.94;97614.78;4946971;28;20042;-62
2021/11/17 11:24:34;;;;;;;9.73;5.57;;;;;;;9.93;68.57;97552.00;4930194;29;20060;-66
2021/11/17 11:27:11;;;;;;;10.57;5.82;;;;;;;9.96;69.61;97556.81;4940447;29;20062;-67
2021/11/17 11:29:42;;;;;;;9.75;6.15;;;;;;;10.28;70.95;97633.28;4948302;28;20054;-76
2021/11/17 11:32:14;;;;;;;11.38;5.30;;;;;;;7.74;70.63;97215.28;4936124;29;20071;-66
2021/11/17 11:34:44;;;;;;;10.02;6.00;;;;;;;10.29;70.91;97614.72;4934673;29;20055;-62
2021/11/17 11:37:31;;;;;;;10.75;4.90;;;;;;;10.32;70.73;97614.78;4936174;29;20059;-68
2021/11/17 11:40:07;;;;;;;12.48;6.13;;;;;;;10.12;71.58;97610.28;4932711;29;20052;-61
2021/11/17 11:42:59;;;;;;;13.52;6.15;;;;;;;10.11;71.61;97613.41;4938566;29;20054;-63
2021/11/17 11:45:26;;;;;;;12.57;6.00;;;;;;;10.16;71.47;97605.66;4939170;29;20142;-62
2021/11/17 11:48:03;;;;;;;12.95;5.70;;;;;;;9.49;70.94;97508.88;4938238;29;20047;-62
2021/11/17 11:50:29;;;;;;;7.55;4.32;;;;;;;10.08;70.51;97597.50;4946745;28;20449;-62
2021/11/17 11:53:14;;;;;;;9.68;4.72;;;;;;;10.18;69.82;97592.25;4945627;28;20078;-70
2021/11/17 11:55:50;;;;;;;9.50;5.55;;;;;;;10.31;69.68;97596.56;4932509;29;20067;-63
2021/11/17 11:58:25;;;;;;;11.73;5.43;;;;;;;10.17;69.86;97596.19;4939561;29;20055;-62
2021/11/17 12:01:05;;;;;;;11.20;5.60;;;;;;;9.86;71.18;97551.81;4942245;29;20134;-61
2021/11/17 12:03:34;;;;;;;14.23;6.32;;;;;;;9.85;70.80;97549.38;4928501;29;20549;-64
2021/11/17 12:06:09;;;;;;;14.75;8.30;;;;;;;9.53;70.46;97504.22;4940767;29;20047;-60
2021/11/17 12:08:48;;;;;;;14.30;6.65;;;;;;;10.04;71.32;97597.38;4940647;28;20512;-61
2021/11/17 12:11:22;;;;;;;15.95;5.95;;;;;;;9.49;70.74;97481.22;4953113;28;20054;-63
2021/11/17 12:14:03;;;;;;;14.57;5.40;;;;;;;9.94;70.13;97584.03;4936595;29;20059;-64
2021/11/17 12:16:35;;;;;;;13.63;5.82;;;;;;;10.19;69.68;97596.66;4953785;28;20142;-62
2021/11/17 12:19:13;;;;;;;12.67;5.60;;;;;;;10.21;69.26;97591.56;4945253;28;20066;-66
2021/11/17 12:21:39;;;;;;;9.50;5.80;;;;;;;10.11;69.98;97597.63;4947136;28;20055;-60
2021/11/17 12:24:09;;;;;;;10.70;5.13;;;;;;;10.10;70.77;97601.53;4931022;28;20070;-62
2021/11/17 12:26:40;;;;;;;10.20;6.03;;;;;;;10.11;70.75;97596.81;4939276;29;20067;-61
2021/11/17 12:29:20;;;;;;;10.60;5.38;;;;;;;9.67;70.92;97515.72;4936498;29;20126;-66
2021/11/17 12:32:05;;;;;;;11.00;5.55;;;;;;;9.93;70.55;97552.00;4947220;29;20079;-64
2021/11/17 12:34:44;;;;;;;20.35;7.32;;;;;;;10.11;72.06;97600.38;4944637;29;20047;-61
2021/11/17 12:37:22;;;;;;;14.60;7.13;;;;;;;9.81;72.45;97570.63;4943950;29;20070;-69
2021/11/17 12:40:01;;;;;;;11.45;5.90;;;;;;;10.00;71.96;97590.13;4938521;29;20055;-64
2021/11/17 12:42:30;;;;;;;14.65;6.95;;;;;;;9.59;71.89;97563.69;4940078;29;20073;-61
2021/11/17 12:44:59;;;;;;;13.13;6.80;;;;;;;9.84;72.91;97590.09;4928272;28;20068;-64
2021/11/17 12:47:41;;;;;;;12.07;6.45;;;;;;;9.69;74.03;97607.44;4933349;29;20151;-65
2021/11/17 12:50:14;;;;;;;12.07;6.63;;;;;;;9.67;73.83;97595.94;4941214;29;20068;-69
2021/11/17 12:53:09;;;;;;;12.82;6.43;;;;;;;9.64;74.40;97593.84;4947066;29;20047;-66
2021/11/17 12:55:50;;;;;;;19.02;7.03;;;;;;;8.86;74.52;97468.31;4946031;29;20165;-64
2021/11/17 12:58:23;;;;;;;11.68;6.13;;;;;;;9.54;75.36;97577.75;4946673;29;20055;-62
2021/11/17 13:01:30;;;;;;;15.35;6.65;;;;;;;9.55;75.21;97579.34;4945819;29;20051;-65
2021/11/17 13:04:06;;;;;;;19.55;7.72;;;;;;;9.38;75.37;97574.13;4947779;28;20055;-68
2021/11/17 13:06:41;;;;;;;14.55;6.80;;;;;;;9.47;75.88;97580.31;4945656;29;20184;-64
2021/11/17 13:09:23;;;;;;;11.15;4.90;;;;;;;9.48;75.02;97578.34;4940976;29;20387;-72
2021/11/17 13:11:57;;;;;;;16.58;9.13;;;;;;;9.33;75.63;97562.47;4944866;29;20047;-63
2021/11/17 13:14:37;;;;;;;10.70;5.43;;;;;;;9.41;75.60;97584.47;4927564;29;20052;-66
2021/11/17 13:17:13;;;;;;;9.95;4.53;;;;;;;9.37;74.63;97583.56;4957362;28;20070;-68
2021/11/17 13:19:45;;;;;;;9.20;4.97;;;;;;;9.42;75.49;97583.31;4936498;29;20113;-65
2021/11/17 13:22:32;;;;;;;9.60;5.13;;;;;;;9.47;75.02;97582.28;4946286;29;20503;-67
2021/11/17 13:25:29;;;;;;;11.82;5.25;;;;;;;9.47;75.21;97585.84;4945184;29;20055;-66
2021/11/17 13:28:01;;;;;;;14.82;7.50;;;;;;;9.44;74.94;97567.19;4942333;28;20062;-68
2021/11/17 13:30:39;;;;;;;11.38;6.32;;;;;;;9.64;74.42;97582.00;4941293;28;20063;-64
2021/11/17 13:33:35;;;;;;;15.52;6.07;;;;;;;9.75;74.33;97572.84;4932823;29;20063;-65
2021/11/17 13:36:13;;;;;;;13.00;5.68;;;;;;;8.96;73.68;97429.94;4942080;28;20551;-64
2021/11/17 13:38:55;;;;;;;10.65;5.53;;;;;;;9.76;73.32;97571.69;4936463;28;20040;-65
2021/11/17 13:41:43;;;;;;;9.55;4.55;;;;;;;8.69;73.24;97407.81;4935488;29;20135;-67
2021/11/17 13:44:11;;;;;;;15.43;6.18;;;;;;;9.60;72.53;97529.34;4941563;29;20063;-64
2021/11/17 13:46:52;;;;;;;14.02;6.43;;;;;;;9.81;72.84;97574.22;4932768;29;20138;-62
2021/11/17 13:49:19;;;;;;;10.35;5.15;;;;;;;9.83;72.05;97574.63;4944576;28;20071;-61
2021/11/17 13:51:46;;;;;;;14.23;6.53;;;;;;;9.77;73.05;97580.78;4937027;29;20047;-62
2021/11/17 13:54:14;;;;;;;9.13;5.25;;;;;;;9.36;73.10;97515.59;4935957;29;20124;-60
2021/11/17 13:56:41;;;;;;;8.27;4.18;;;;;;;9.64;72.41;97554.34;4935935;29;20059;-61
2021/11/17 13:59:09;;;;;;;11.38;5.03;;;;;;;9.22;72.39;97487.53;4935628;29;20052;-65
2021/11/17 14:01:36;;;;;;;11.45;5.85;;;;;;;8.50;72.77;97410.38;4937734;28;20055;-65
2021/11/17 14:04:03;;;;;;;14.00;5.30;;;;;;;9.07;72.82;97485.53;4941042;28;20083;-70
2021/11/17 14:06:30;;;;;;;14.60;8.93;;;;;;;8.67;72.52;97407.34;4940922;29;20059;-71
2021/11/17 14:08:57;;;;;;;12.65;6.07;;;;;;;8.55;72.87;97407.38;4949219;28;20598;-66
2021/11/17 14:11:23;;;;;;;12.55;6.63;;;;;;;9.66;72.97;97561.09;4945662;28;20065;-65
2021/11/17 14:13:50;;;;;;;15.60;7.88;;;;;;;9.61;73.05;97561.34;4944205;28;20057;-66
2021/11/17 14:16:18;;;;;;;29.00;11.10;;;;;;;8.81;73.60;97451.97;4944836;28;20055;-65
2021/11/17 14:18:47;;;;;;;19.33;8.52;;;;;;;9.48;73.80;97559.81;4927869;29;20200;-60
2021/11/17 14:21:15;;;;;;;17.88;9.20;;;;;;;9.47;73.93;97560.94;4938880;28;20126;-63
2021/11/17 14:23:42;;;;;;;21.05;9.05;;;;;;;8.79;74.62;97473.59;4926405;28;20478;-61
2021/11/17 14:26:12;;;;;;;36.30;17.02;;;;;;;9.25;75.31;97536.59;4936265;29;20047;-67
2021/11/17 14:28:45;;;;;;;36.80;17.80;;;;;;;8.74;75.59;97487.66;4936879;29;20051;-71
2021/11/17 14:31:27;;;;;;;30.88;14.95;;;;;;;9.34;75.74;97562.16;4934329;29;20083;-71
2021/11/17 14:33:58;;;;;;;25.90;12.45;;;;;;;9.34;75.08;97567.69;4935212;29;20055;-67
2021/11/17 14:36:34;;;;;;;26.50;15.63;;;;;;;9.20;74.68;97534.06;4940077;28;20498;-63
2021/11/17 14:39:03;;;;;;;24.05;11.13;;;;;;;9.36;75.20;97565.34;4942571;29;20503;-62
2021/11/17 14:41:31;;;;;;;35.53;14.77;;;;;;;9.13;75.83;97533.88;4945377;28;20134;-62
2021/11/17 14:43:58;;;;;;;22.67;10.75;;;;;;;9.00;76.25;97537.81;4945519;28;20055;-62
2021/11/17 14:46:26;;;;;;;12.85;6.95;;;;;;;9.21;76.70;97574.38;4944869;28;20111;-63
2021/11/17 14:48:52;;;;;;;15.73;6.40;;;;;;;8.88;77.02;97521.25;4945107;28;20067;-62